createdAt,value
2023-04-25T00:00:31.510Z,2.07
2023-04-25T00:03:00.417Z,3.27
2023-04-25T00:05:28.333Z,2.77
2023-04-25T00:07:56.175Z,2.20
2023-04-25T00:10:23.764Z,1.80
2023-04-25T00:12:50.910Z,3.57
2023-04-25T00:15:18.778Z,3.30
2023-04-25T00:17:46.927Z,1.57
2023-04-25T00:20:14.387Z,3.97
2023-04-25T00:22:41.544Z,2.10
2023-04-25T00:25:09.083Z,2.37
2023-04-25T00:27:36.690Z,1.80
2023-04-25T00:30:04.581Z,2.60
2023-04-25T00:32:31.711Z,2.83
2023-04-25T00:34:59.148Z,3.60
2023-04-25T00:37:26.596Z,2.97
2023-04-25T00:39:55.908Z,2.97
2023-04-25T00:42:23.329Z,2.50
2023-04-25T00:44:51.187Z,3.20
2023-04-25T00:47:18.885Z,2.10
2023-04-25T00:49:46.374Z,2.73
2023-04-25T00:52:14.036Z,2.47
2023-04-25T00:54:41.803Z,2.03
2023-04-25T00:57:09.082Z,1.90
2023-04-25T00:59:38.578Z,2.50
2023-04-25T01:02:06.579Z,2.20
2023-04-25T01:04:34.242Z,2.50
2023-04-25T01:07:03.855Z,1.90
2023-04-25T01:09:33.045Z,3.10
2023-04-25T01:12:01.159Z,2.00
2023-04-25T01:14:28.714Z,3.33
2023-04-25T01:16:55.969Z,2.37
2023-04-25T01:19:24.495Z,1.30
2023-04-25T01:21:52.611Z,1.73
2023-04-25T01:24:20.218Z,3.03
2023-04-25T01:26:51.361Z,2.70
2023-04-25T01:29:26.370Z,2.50
2023-04-25T01:31:54.590Z,2.60
2023-04-25T01:34:22.560Z,2.13
2023-04-25T01:36:51.861Z,2.10
2023-04-25T01:39:20.001Z,3.13
2023-04-25T01:41:48.843Z,1.97
2023-04-25T01:44:16.804Z,2.30
2023-04-25T01:46:44.576Z,1.70
2023-04-25T01:49:12.741Z,3.40
2023-04-25T01:51:41.587Z,2.40
2023-04-25T01:54:09.635Z,3.17
2023-04-25T01:56:39.266Z,2.90
2023-04-25T01:59:08.792Z,3.73
2023-04-25T02:01:42.012Z,2.47
2023-04-25T02:04:21.356Z,2.43
2023-04-25T02:06:48.965Z,2.47
2023-04-25T02:09:17.167Z,3.57
2023-04-25T02:11:49.282Z,2.30
2023-04-25T02:14:38.198Z,2.77
2023-04-25T02:17:27.363Z,3.17
2023-04-25T02:19:54.591Z,3.50
2023-04-25T02:22:21.748Z,3.00
2023-04-25T02:24:48.853Z,4.03
2023-04-25T02:27:16.465Z,3.30
2023-04-25T02:29:43.980Z,3.67
2023-04-25T02:32:11.971Z,4.03
2023-04-25T02:34:39.067Z,2.63
2023-04-25T02:37:06.149Z,2.67
2023-04-25T02:39:33.224Z,3.60
2023-04-25T02:42:00.320Z,3.23
2023-04-25T02:44:30.361Z,2.53
2023-04-25T02:46:57.511Z,2.67
2023-04-25T02:49:24.725Z,2.87
2023-04-25T02:51:53.254Z,2.33
2023-04-25T02:54:20.813Z,2.50
2023-04-25T02:56:49.151Z,3.30
2023-04-25T02:59:21.722Z,2.97
2023-04-25T03:01:49.168Z,3.67
2023-04-25T03:04:16.374Z,4.80
2023-04-25T03:06:43.756Z,4.80
2023-04-25T03:09:11.443Z,3.03
2023-04-25T03:11:40.100Z,3.03
2023-04-25T03:14:07.578Z,3.77
2023-04-25T03:16:35.593Z,3.33
2023-04-25T03:19:03.706Z,3.63
2023-04-25T03:21:35.444Z,1.73
2023-04-25T03:24:05.472Z,2.87
2023-04-25T03:26:32.631Z,3.00
2023-04-25T03:29:00.601Z,2.70
2023-04-25T03:31:28.471Z,2.67
2023-04-25T03:33:55.625Z,2.10
2023-04-25T03:36:24.397Z,3.27
2023-04-25T03:38:51.638Z,2.40
2023-04-25T03:41:21.177Z,2.10
2023-04-25T03:43:53.512Z,2.67
2023-04-25T03:46:21.248Z,1.93
2023-04-25T03:48:49.277Z,2.33
2023-04-25T03:51:22.360Z,2.60
2023-04-25T03:53:51.166Z,1.93
2023-04-25T03:56:37.224Z,2.07
2023-04-25T03:59:15.861Z,3.40
2023-04-25T04:01:42.990Z,2.70
2023-04-25T04:04:10.373Z,3.47
2023-04-25T04:06:37.680Z,2.33
2023-04-25T04:09:13.434Z,2.77
2023-04-25T04:11:43.067Z,1.80
2023-04-25T04:14:11.463Z,1.63
2023-04-25T04:16:43.259Z,2.07
2023-04-25T04:19:10.412Z,1.70
2023-04-25T04:21:39.014Z,2.73
2023-04-25T04:24:06.736Z,1.60
2023-04-25T04:26:46.017Z,2.00
2023-04-25T04:29:29.967Z,1.13
2023-04-25T04:32:12.162Z,1.60
2023-04-25T04:34:40.740Z,1.90
2023-04-25T04:37:08.438Z,1.43
2023-04-25T04:39:37.356Z,1.60
2023-04-25T04:42:14.629Z,1.90
2023-04-25T04:45:04.096Z,1.50
2023-04-25T04:48:03.036Z,1.67
2023-04-25T04:50:53.369Z,2.40
2023-04-25T04:53:46.309Z,1.17
2023-04-25T04:56:30.460Z,1.77
2023-04-25T04:59:12.903Z,1.97
2023-04-25T05:01:58.514Z,1.40
2023-04-25T05:04:52.859Z,1.80
2023-04-25T05:07:38.637Z,1.60
2023-04-25T05:10:25.590Z,1.50
2023-04-25T05:13:11.853Z,1.50
2023-04-25T05:15:38.966Z,1.10
2023-04-25T05:18:26.370Z,2.37
2023-04-25T05:21:10.648Z,2.30
2023-04-25T05:23:47.244Z,1.50
2023-04-25T05:26:38.834Z,1.73
2023-04-25T05:29:26.168Z,1.83
2023-04-25T05:32:04.152Z,1.47
2023-04-25T05:34:31.318Z,2.13
2023-04-25T05:37:02.116Z,2.07
2023-04-25T05:39:30.678Z,1.80
2023-04-25T05:42:27.426Z,1.70
2023-04-25T05:45:09.036Z,1.37
2023-04-25T05:47:46.490Z,1.83
2023-04-25T05:50:32.020Z,1.20
2023-04-25T05:53:06.922Z,1.53
2023-04-25T05:55:40.268Z,2.60
2023-04-25T05:58:21.342Z,2.90
2023-04-25T06:00:48.480Z,2.57
2023-04-25T06:03:18.788Z,1.13
2023-04-25T06:05:48.119Z,1.30
2023-04-25T06:08:15.491Z,1.93
2023-04-25T06:10:42.662Z,1.70
2023-04-25T06:13:09.805Z,1.77
2023-04-25T06:15:37.849Z,1.67
2023-04-25T06:18:05.343Z,1.60
2023-04-25T06:20:32.496Z,2.20
2023-04-25T06:23:01.215Z,2.63
2023-04-25T06:25:38.544Z,1.83
2023-04-25T06:28:05.959Z,1.37
2023-04-25T06:30:33.701Z,1.27
2023-04-25T06:33:06.736Z,2.07
2023-04-25T06:35:33.979Z,4.43
2023-04-25T06:38:01.216Z,5.03
2023-04-25T06:40:28.671Z,2.23
2023-04-25T06:42:56.017Z,1.83
2023-04-25T06:45:55.267Z,2.07
2023-04-25T06:48:23.941Z,2.30
2023-04-25T06:50:51.984Z,1.63
2023-04-25T06:53:19.855Z,2.20
2023-04-25T06:55:51.174Z,1.80
2023-04-25T06:58:20.880Z,1.80
2023-04-25T07:01:14.005Z,1.07
2023-04-25T07:03:41.359Z,1.37
2023-04-25T07:06:14.497Z,1.93
2023-04-25T07:08:42.361Z,1.13
2023-04-25T07:11:09.685Z,1.77
2023-04-25T07:13:37.696Z,1.43
2023-04-25T07:16:05.999Z,1.10
2023-04-25T07:18:34.877Z,1.67
2023-04-25T07:21:02.774Z,1.50
2023-04-25T07:23:31.153Z,1.83
2023-04-25T07:26:00.686Z,1.70
2023-04-25T07:28:28.446Z,1.20
2023-04-25T07:30:55.672Z,1.83
2023-04-25T07:33:22.816Z,2.27
2023-04-25T07:35:50.315Z,1.50
2023-04-25T07:38:18.564Z,2.67
2023-04-25T07:40:46.541Z,1.50
2023-04-25T07:43:17.496Z,1.37
2023-04-25T07:45:57.542Z,1.53
2023-04-25T07:48:25.154Z,1.50
2023-04-25T07:50:53.626Z,1.80
2023-04-25T07:53:20.721Z,1.47
2023-04-25T07:55:53.800Z,1.90
2023-04-25T07:58:23.228Z,1.23
2023-04-25T08:01:00.575Z,1.37
2023-04-25T08:03:48.381Z,1.70
2023-04-25T08:06:22.246Z,1.30
2023-04-25T08:09:18.599Z,2.23
2023-04-25T08:11:45.915Z,1.50
2023-04-25T08:14:15.956Z,2.00
2023-04-25T08:16:44.891Z,1.03
2023-04-25T08:19:12.495Z,1.43
2023-04-25T08:21:39.661Z,1.43
2023-04-25T08:24:11.490Z,1.93
2023-04-25T08:26:41.756Z,1.00
2023-04-25T08:29:10.866Z,1.20
2023-04-25T08:31:41.285Z,1.77
2023-04-25T08:34:09.368Z,1.70
2023-04-25T08:36:42.256Z,1.30
2023-04-25T08:39:23.858Z,1.10
2023-04-25T08:42:17.334Z,1.63
2023-04-25T08:44:47.258Z,1.50
2023-04-25T08:47:14.418Z,1.60
2023-04-25T08:49:48.012Z,1.70
2023-04-25T08:52:23.555Z,1.90
2023-04-25T08:54:52.460Z,2.07
2023-04-25T08:57:22.170Z,1.33
2023-04-25T08:59:50.989Z,1.00
2023-04-25T09:02:21.045Z,1.00
2023-04-25T09:04:51.409Z,2.00
2023-04-25T09:07:22.170Z,1.60
2023-04-25T09:09:49.393Z,1.63
2023-04-25T09:12:22.330Z,0.90
2023-04-25T09:15:07.791Z,1.70
2023-04-25T09:18:00.758Z,1.23
2023-04-25T09:23:24.967Z,2.20
2023-04-25T09:25:55.050Z,1.40
2023-04-25T09:28:28.612Z,1.53
2023-04-25T09:30:59.547Z,1.30
2023-04-25T09:33:39.417Z,1.40
2023-04-25T09:36:12.071Z,1.33
2023-04-25T09:39:02.256Z,1.90
2023-04-25T09:41:33.603Z,0.90
2023-04-25T09:44:03.577Z,0.80
2023-04-25T09:46:39.880Z,1.70
2023-04-25T09:49:16.338Z,1.23
2023-04-25T09:52:00.496Z,2.20
2023-04-25T09:54:33.600Z,2.00
2023-04-25T09:57:25.220Z,1.30
2023-04-25T09:59:56.876Z,0.77
2023-04-25T10:02:28.963Z,0.70
2023-04-25T10:05:08.042Z,0.90
2023-04-25T10:07:40.122Z,0.90
2023-04-25T10:10:14.496Z,2.40
2023-04-25T10:12:43.902Z,1.20
2023-04-25T10:15:12.103Z,1.40
2023-04-25T10:17:41.148Z,1.13
2023-04-25T10:20:12.012Z,1.20
2023-04-25T10:22:44.272Z,1.60
2023-04-25T10:25:12.320Z,0.93
2023-04-25T10:27:41.225Z,2.13
2023-04-25T10:30:16.594Z,2.10
2023-04-25T10:32:46.374Z,1.33
2023-04-25T10:35:26.730Z,1.10
2023-04-25T10:38:12.071Z,1.23
2023-04-25T10:40:39.434Z,1.00
2023-04-25T10:43:43.031Z,1.30
2023-04-25T10:46:32.682Z,1.03
2023-04-25T10:49:03.145Z,1.17
2023-04-25T10:51:53.906Z,0.97
2023-04-25T10:54:26.628Z,2.27
2023-04-25T10:56:54.344Z,1.73
2023-04-25T10:59:26.074Z,2.23
2023-04-25T11:01:55.984Z,1.00
2023-04-25T11:04:26.735Z,1.20
2023-04-25T11:07:11.792Z,0.80
2023-04-25T11:09:42.583Z,2.07
2023-04-25T11:12:12.764Z,1.20
2023-04-25T11:17:08.562Z,2.13
2023-04-25T11:19:36.036Z,1.17
2023-04-25T11:22:04.542Z,1.17
2023-04-25T11:24:35.311Z,1.63
2023-04-25T11:27:04.919Z,1.43
2023-04-25T11:29:33.948Z,0.90
2023-04-25T11:32:02.364Z,1.23
2023-04-25T11:34:34.388Z,1.00
2023-04-25T11:37:03.930Z,1.13
2023-04-25T11:39:31.702Z,1.80
2023-04-25T11:41:59.963Z,1.20
2023-04-25T11:44:29.687Z,1.20
2023-04-25T11:46:56.797Z,1.20
2023-04-25T11:49:25.863Z,0.93
2023-04-25T11:51:53.070Z,1.30
2023-04-25T11:54:20.822Z,1.70
2023-04-25T11:56:47.970Z,1.70
2023-04-25T11:59:15.152Z,1.50
2023-04-25T12:01:49.942Z,1.30
2023-04-25T12:04:26.266Z,1.00
2023-04-25T12:06:56.308Z,2.37
2023-04-25T12:09:33.066Z,1.50
2023-04-25T12:12:04.790Z,1.20
2023-04-25T12:14:34.727Z,1.50
2023-04-25T12:17:05.119Z,1.23
2023-04-25T12:19:38.034Z,1.60
2023-04-25T12:22:22.333Z,0.93
2023-04-25T12:24:49.956Z,1.80
2023-04-25T12:27:19.736Z,0.70
2023-04-25T12:29:56.830Z,1.57
2023-04-25T12:32:24.954Z,0.87
2023-04-25T12:34:52.080Z,1.67
2023-04-25T12:37:19.260Z,0.77
2023-04-25T12:39:46.340Z,1.00
2023-04-25T12:42:13.834Z,0.80
2023-04-25T12:44:41.927Z,1.07
2023-04-25T12:47:09.557Z,1.50
2023-04-25T12:49:36.766Z,1.73
2023-04-25T12:52:03.981Z,2.60
2023-04-25T12:54:31.380Z,1.33
2023-04-25T12:56:59.300Z,1.30
2023-04-25T12:59:26.447Z,1.07
2023-04-25T13:01:54.173Z,1.47
2023-04-25T13:04:22.347Z,1.87
2023-04-25T13:06:49.686Z,1.00
2023-04-25T13:09:16.766Z,1.10
2023-04-25T13:11:43.983Z,1.10
2023-04-25T13:14:11.305Z,1.17
2023-04-25T13:16:38.651Z,1.30
2023-04-25T13:19:06.598Z,1.40
2023-04-25T13:21:33.719Z,1.23
2023-04-25T13:24:01.043Z,2.60
2023-04-25T13:26:28.138Z,2.40
2023-04-25T13:28:55.258Z,2.10
2023-04-25T13:31:22.457Z,1.80
2023-04-25T13:33:49.994Z,0.80
2023-04-25T13:36:17.563Z,3.30
2023-04-25T13:38:46.165Z,1.60
2023-04-25T13:41:18.667Z,0.93
2023-04-25T13:43:48.779Z,1.77
2023-04-25T13:46:35.513Z,1.50
2023-04-25T13:49:12.944Z,2.17
2023-04-25T13:51:41.622Z,1.87
2023-04-25T13:54:08.890Z,2.77
2023-04-25T13:56:36.297Z,1.37
2023-04-25T13:59:03.851Z,1.27
2023-04-25T14:01:32.293Z,1.87
2023-04-25T14:03:59.710Z,0.90
2023-04-25T14:06:26.954Z,1.03
2023-04-25T14:08:55.504Z,0.70
2023-04-25T14:11:22.594Z,1.40
2023-04-25T14:13:52.528Z,1.00
2023-04-25T14:16:20.747Z,0.50
2023-04-25T14:18:47.892Z,0.57
2023-04-25T14:21:15.037Z,1.20
2023-04-25T14:23:42.525Z,1.30
2023-04-25T14:26:13.321Z,1.27
2023-04-25T14:28:40.510Z,1.30
2023-04-25T14:31:07.890Z,1.77
2023-04-25T14:33:35.287Z,1.13
2023-04-25T14:36:02.420Z,1.17
2023-04-25T14:38:29.742Z,1.60
2023-04-25T14:40:56.843Z,1.27
2023-04-25T14:43:24.005Z,1.00
2023-04-25T14:45:51.109Z,1.30
2023-04-25T14:48:20.667Z,1.47
2023-04-25T14:50:48.059Z,1.10
2023-04-25T14:53:15.297Z,1.27
2023-04-25T14:55:43.078Z,1.40
2023-04-25T14:58:10.361Z,1.00
2023-04-25T15:00:38.338Z,0.70
2023-04-25T15:03:05.831Z,1.20
2023-04-25T15:05:33.056Z,1.27
2023-04-25T15:08:00.160Z,2.23
2023-04-25T15:10:27.463Z,1.73
2023-04-25T15:12:54.744Z,0.60
2023-04-25T15:15:26.420Z,1.13
2023-04-25T15:17:58.835Z,0.93
2023-04-25T15:20:27.849Z,1.83
2023-04-25T15:22:55.570Z,0.93
2023-04-25T15:25:22.865Z,2.00
2023-04-25T15:27:50.407Z,1.27
2023-04-25T15:30:18.690Z,1.10
2023-04-25T15:32:48.166Z,1.03
2023-04-25T15:35:16.387Z,2.60
2023-04-25T15:37:44.115Z,2.80
2023-04-25T15:40:20.323Z,1.80
2023-04-25T15:42:53.078Z,1.70
2023-04-25T15:45:25.763Z,1.30
2023-04-25T15:47:55.707Z,1.43
2023-04-25T15:50:23.696Z,0.80
2023-04-25T15:52:51.749Z,0.97
2023-04-25T15:55:21.837Z,1.10
2023-04-25T15:57:51.534Z,2.03
2023-04-25T16:00:22.060Z,0.67
2023-04-25T16:02:49.503Z,2.63
2023-04-25T16:05:18.244Z,1.10
2023-04-25T16:07:46.978Z,1.27
2023-04-25T16:10:17.188Z,1.30
2023-04-25T16:12:44.366Z,0.93
2023-04-25T16:15:11.590Z,1.40
2023-04-25T16:17:38.715Z,1.20
2023-04-25T16:20:10.483Z,1.00
2023-04-25T16:22:43.262Z,2.10
2023-04-25T16:25:12.599Z,1.30
2023-04-25T16:27:39.912Z,1.70
2023-04-25T16:30:11.768Z,0.87
2023-04-25T16:32:40.031Z,0.70
2023-04-25T16:35:08.358Z,1.47
2023-04-25T16:37:36.216Z,1.17
2023-04-25T16:40:03.777Z,1.00
2023-04-25T16:42:30.883Z,1.50
2023-04-25T16:44:58.212Z,1.47
2023-04-25T16:47:26.070Z,1.00
2023-04-25T16:49:53.439Z,1.00
2023-04-25T16:52:23.659Z,1.17
2023-04-25T16:54:51.010Z,2.47
2023-04-25T16:57:18.180Z,0.90
2023-04-25T16:59:45.999Z,1.50
2023-04-25T17:02:13.787Z,1.43
2023-04-25T17:04:41.738Z,1.13
2023-04-25T17:07:09.673Z,0.67
2023-04-25T17:09:36.837Z,1.30
2023-04-25T17:12:04.809Z,0.57
2023-04-25T17:14:33.339Z,0.90
2023-04-25T17:17:00.980Z,0.77
2023-04-25T17:19:28.634Z,0.90
2023-04-25T17:21:56.121Z,1.27
2023-04-25T17:24:23.395Z,1.03
2023-04-25T17:26:50.755Z,1.43
2023-04-25T17:29:17.914Z,0.67
2023-04-25T17:31:45.365Z,0.70
2023-04-25T17:34:17.960Z,1.47
2023-04-25T17:36:46.252Z,2.23
2023-04-25T17:39:17.359Z,1.83
2023-04-25T17:41:45.630Z,0.67
2023-04-25T17:44:12.814Z,0.80
2023-04-25T17:46:40.005Z,1.00
2023-04-25T17:49:07.241Z,1.37
2023-04-25T17:51:34.466Z,0.90
2023-04-25T17:54:01.684Z,1.03
2023-04-25T17:56:29.328Z,1.00
2023-04-25T17:58:56.519Z,0.63
2023-04-25T18:01:23.744Z,1.00
2023-04-25T18:03:52.332Z,1.00
2023-04-25T18:06:19.722Z,1.67
2023-04-25T18:08:47.427Z,1.20
2023-04-25T18:11:14.679Z,1.17
2023-04-25T18:13:41.930Z,0.80
2023-04-25T18:16:10.033Z,1.37
2023-04-25T18:18:38.015Z,0.83
2023-04-25T18:21:07.964Z,1.03
2023-04-25T18:23:36.729Z,0.70
2023-04-25T18:26:05.875Z,0.93
2023-04-25T18:28:34.381Z,0.60
2023-04-25T18:31:01.820Z,2.63
2023-04-25T18:33:28.911Z,1.20
2023-04-25T18:35:59.592Z,1.23
2023-04-25T18:41:08.341Z,1.00
2023-04-25T18:43:46.151Z,1.10
2023-04-25T18:46:13.397Z,2.03
2023-04-25T18:48:40.571Z,1.10
2023-04-25T18:51:07.764Z,1.00
2023-04-25T18:53:35.033Z,1.17
2023-04-25T18:56:02.193Z,0.97
2023-04-25T18:58:29.497Z,1.67
2023-04-25T19:00:56.773Z,0.80
2023-04-25T19:03:24.296Z,0.80
2023-04-25T19:05:51.809Z,1.13
2023-04-25T19:08:19.102Z,0.90
2023-04-25T19:10:47.241Z,1.30
2023-04-25T19:13:14.464Z,1.37
2023-04-25T19:15:41.554Z,1.50
2023-04-25T19:18:09.064Z,0.80
2023-04-25T19:20:36.424Z,1.33
2023-04-25T19:23:05.580Z,0.97
2023-04-25T19:25:34.075Z,1.13
2023-04-25T19:28:01.764Z,0.70
2023-04-25T19:30:29.857Z,1.00
2023-04-25T19:32:57.417Z,0.70
2023-04-25T19:35:25.351Z,1.33
2023-04-25T19:37:52.429Z,0.57
2023-04-25T19:40:21.907Z,1.47
2023-04-25T19:42:49.005Z,2.70
2023-04-25T19:45:16.123Z,0.60
2023-04-25T19:47:43.874Z,1.40
2023-04-25T19:50:11.969Z,1.13
2023-04-25T19:52:39.998Z,1.53
2023-04-25T19:55:08.332Z,1.00
2023-04-25T19:57:37.904Z,1.57
2023-04-25T20:00:14.664Z,1.37
2023-04-25T20:02:45.344Z,1.20
2023-04-25T20:05:18.470Z,1.47
2023-04-25T20:07:45.572Z,0.97
2023-04-25T20:10:14.277Z,1.40
2023-04-25T20:12:41.556Z,0.93
2023-04-25T20:15:12.598Z,2.00
2023-04-25T20:17:41.823Z,0.77
2023-04-25T20:20:11.395Z,0.60
2023-04-25T20:22:40.447Z,1.10
2023-04-25T20:25:10.526Z,0.50
2023-04-25T20:27:40.833Z,1.40
2023-04-25T20:30:10.242Z,1.30
2023-04-25T20:32:38.051Z,0.70
2023-04-25T20:35:09.103Z,0.90
2023-04-25T20:37:36.731Z,0.73
2023-04-25T20:40:09.024Z,1.50
2023-04-25T20:42:36.545Z,1.10
2023-04-25T20:45:13.624Z,0.80
2023-04-25T20:47:42.776Z,0.90
2023-04-25T20:50:11.246Z,1.67
2023-04-25T20:52:38.767Z,1.00
2023-04-25T20:55:07.303Z,1.40
2023-04-25T20:57:34.399Z,1.20
2023-04-25T21:00:01.591Z,1.00
2023-04-25T21:02:30.068Z,1.37
2023-04-25T21:04:57.300Z,0.60
2023-04-25T21:07:24.429Z,0.73
2023-04-25T21:09:51.834Z,1.20
2023-04-25T21:12:19.042Z,0.90
2023-04-25T21:14:46.147Z,1.70
2023-04-25T21:17:13.349Z,1.00
2023-04-25T21:19:41.210Z,1.33
2023-04-25T21:22:08.361Z,1.53
2023-04-25T21:24:35.515Z,0.80
2023-04-25T21:27:02.562Z,1.37
2023-04-25T21:29:29.701Z,1.23
2023-04-25T21:31:57.034Z,0.50
2023-04-25T21:34:24.205Z,1.30
2023-04-25T21:36:51.264Z,0.80
2023-04-25T21:39:19.124Z,0.67
2023-04-25T21:41:46.429Z,1.03
2023-04-25T21:44:14.564Z,0.83
2023-04-25T21:46:41.955Z,1.00
2023-04-25T21:49:09.109Z,1.80
2023-04-25T21:51:36.252Z,0.50
2023-04-25T21:54:05.568Z,1.10
2023-04-25T21:56:33.241Z,0.70
2023-04-25T21:59:00.482Z,1.00
2023-04-25T22:01:28.603Z,0.63
2023-04-25T22:03:55.930Z,1.00
2023-04-25T22:06:23.237Z,0.90
2023-04-25T22:08:50.577Z,0.77
2023-04-25T22:11:17.908Z,0.73
2023-04-25T22:13:45.572Z,1.10
2023-04-25T22:16:12.790Z,0.63
2023-04-25T22:18:40.712Z,1.03
2023-04-25T22:21:08.774Z,0.70
2023-04-25T22:23:37.237Z,0.77
2023-04-25T22:26:05.292Z,0.90
2023-04-25T22:28:33.259Z,0.83
2023-04-25T22:31:00.393Z,0.70
2023-04-25T22:33:27.527Z,1.10
2023-04-25T22:35:54.662Z,0.90
2023-04-25T22:38:22.085Z,1.20
2023-04-25T22:40:49.316Z,0.60
2023-04-25T22:43:16.566Z,0.70
2023-04-25T22:45:43.708Z,1.10
2023-04-25T22:48:11.041Z,0.50
2023-04-25T22:50:40.592Z,0.90
2023-04-25T22:53:10.150Z,0.80
2023-04-25T22:55:37.281Z,1.90
2023-04-25T22:58:05.100Z,1.00
2023-04-25T23:00:34.358Z,0.60
2023-04-25T23:03:04.913Z,0.60
2023-04-25T23:05:32.931Z,1.03
2023-04-25T23:08:00.208Z,0.87
2023-04-25T23:10:28.703Z,2.30
2023-04-25T23:12:58.099Z,1.37
2023-04-25T23:15:27.720Z,1.53
2023-04-25T23:17:54.941Z,0.70
2023-04-25T23:20:22.182Z,0.70
2023-04-25T23:22:49.789Z,0.83
2023-04-25T23:25:18.280Z,0.80
2023-04-25T23:27:45.438Z,1.03
2023-04-25T23:30:13.230Z,1.07
2023-04-25T23:32:41.215Z,1.27
2023-04-25T23:35:10.183Z,0.63
2023-04-25T23:37:38.775Z,0.60
2023-04-25T23:40:10.541Z,0.70
2023-04-25T23:42:39.012Z,0.93
2023-04-25T23:45:08.377Z,1.33
2023-04-25T23:47:36.272Z,1.10
2023-04-25T23:50:04.309Z,0.70
2023-04-25T23:52:31.681Z,0.40
2023-04-25T23:54:58.780Z,0.70
2023-04-25T23:57:25.997Z,1.27
2023-04-25T23:59:53.301Z,0.83
